Terminal Aerodrome Forecast
Issued by NWS Missoula, MT

Home | Current Version | Previous Version | Text Only | Print | Product List | Glossary On
Versions: 1 2 3 4 5 6 7 8 9 10 11 12 13 14 15 16 17 18 19 20 21
000
FTUS45 KMSO 260523
TAFMSO
TAF
KMSO 260523Z 2606/2706 VRB05KT P6SM SKC
     FM261000 00000KT 2SM BR SCT004
      TEMPO 2610/2614 3/4SM BR
     FM261800 VRB03KT P6SM SCT010=

USA.gov is the U.S. government's official web portal to all federal, state and local government web resources and services.